sensor_id;sensor_type;location;lat;lon;timestamp;P1;durP1;ratioP1;P2;durP2;ratioP2
56045;SDS011;41913;51.030;3.706;2024-01-16T00:00:24;3.35;;;1.70;;
56045;SDS011;41913;51.030;3.706;2024-01-16T00:02:49;2.78;;;1.50;;
56045;SDS011;41913;51.030;3.706;2024-01-16T00:05:15;3.08;;;1.60;;
56045;SDS011;41913;51.030;3.706;2024-01-16T00:07:42;2.03;;;1.48;;
56045;SDS011;41913;51.030;3.706;2024-01-16T00:10:08;7.68;;;1.40;;
56045;SDS011;41913;51.030;3.706;2024-01-16T00:12:34;3.88;;;1.60;;
56045;SDS011;41913;51.030;3.706;2024-01-16T00:15:00;2.45;;;1.35;;
56045;SDS011;41913;51.030;3.706;2024-01-16T00:17:25;1.48;;;1.30;;
56045;SDS011;41913;51.030;3.706;2024-01-16T00:19:51;1.55;;;1.20;;
56045;SDS011;41913;51.030;3.706;2024-01-16T00:22:17;2.03;;;1.73;;
56045;SDS011;41913;51.030;3.706;2024-01-16T00:24:44;1.77;;;1.52;;
56045;SDS011;41913;51.030;3.706;2024-01-16T00:27:09;2.13;;;1.55;;
56045;SDS011;41913;51.030;3.706;2024-01-16T00:29:37;1.70;;;1.45;;
56045;SDS011;41913;51.030;3.706;2024-01-16T00:32:03;5.75;;;1.60;;
56045;SDS011;41913;51.030;3.706;2024-01-16T00:34:29;4.90;;;1.60;;
56045;SDS011;41913;51.030;3.706;2024-01-16T00:36:55;3.10;;;1.50;;
56045;SDS011;41913;51.030;3.706;2024-01-16T00:39:21;3.55;;;1.92;;
56045;SDS011;41913;51.030;3.706;2024-01-16T00:41:46;3.67;;;1.77;;
56045;SDS011;41913;51.030;3.706;2024-01-16T00:44:12;3.13;;;1.58;;
56045;SDS011;41913;51.030;3.706;2024-01-16T00:46:39;2.80;;;1.60;;
56045;SDS011;41913;51.030;3.706;2024-01-16T00:49:05;3.80;;;1.83;;
56045;SDS011;41913;51.030;3.706;2024-01-16T00:51:32;4.72;;;1.92;;
56045;SDS011;41913;51.030;3.706;2024-01-16T00:53:59;4.05;;;1.70;;
56045;SDS011;41913;51.030;3.706;2024-01-16T00:56:26;2.83;;;1.90;;
56045;SDS011;41913;51.030;3.706;2024-01-16T00:58:57;2.40;;;1.65;;
56045;SDS011;41913;51.030;3.706;2024-01-16T01:01:23;7.63;;;2.25;;
56045;SDS011;41913;51.030;3.706;2024-01-16T01:03:52;4.97;;;1.95;;
56045;SDS011;41913;51.030;3.706;2024-01-16T01:06:17;3.50;;;1.73;;
56045;SDS011;41913;51.030;3.706;2024-01-16T01:08:43;1.65;;;1.35;;
56045;SDS011;41913;51.030;3.706;2024-01-16T01:11:09;2.55;;;1.60;;
56045;SDS011;41913;51.030;3.706;2024-01-16T01:13:36;2.05;;;1.60;;
56045;SDS011;41913;51.030;3.706;2024-01-16T01:16:02;5.00;;;2.25;;
56045;SDS011;41913;51.030;3.706;2024-01-16T01:18:28;3.40;;;1.98;;
56045;SDS011;41913;51.030;3.706;2024-01-16T01:20:53;4.20;;;2.03;;
56045;SDS011;41913;51.030;3.706;2024-01-16T01:23:19;3.28;;;2.15;;
56045;SDS011;41913;51.030;3.706;2024-01-16T01:25:45;5.35;;;1.77;;
56045;SDS011;41913;51.030;3.706;2024-01-16T01:28:11;6.90;;;1.40;;
56045;SDS011;41913;51.030;3.706;2024-01-16T01:30:37;4.07;;;1.40;;
56045;SDS011;41913;51.030;3.706;2024-01-16T01:33:04;2.95;;;1.75;;
56045;SDS011;41913;51.030;3.706;2024-01-16T01:35:30;2.15;;;1.92;;
56045;SDS011;41913;51.030;3.706;2024-01-16T01:37:56;4.53;;;2.65;;
56045;SDS011;41913;51.030;3.706;2024-01-16T01:40:22;2.50;;;1.50;;
56045;SDS011;41913;51.030;3.706;2024-01-16T01:42:48;2.30;;;1.48;;
56045;SDS011;41913;51.030;3.706;2024-01-16T01:45:13;3.22;;;1.90;;
56045;SDS011;41913;51.030;3.706;2024-01-16T01:47:39;3.42;;;1.98;;
56045;SDS011;41913;51.030;3.706;2024-01-16T01:50:08;4.00;;;1.92;;
56045;SDS011;41913;51.030;3.706;2024-01-16T01:52:36;2.95;;;1.65;;
56045;SDS011;41913;51.030;3.706;2024-01-16T01:55:04;1.65;;;1.52;;
56045;SDS011;41913;51.030;3.706;2024-01-16T01:57:34;4.75;;;2.05;;
56045;SDS011;41913;51.030;3.706;2024-01-16T02:00:00;4.45;;;2.25;;
56045;SDS011;41913;51.030;3.706;2024-01-16T02:02:26;2.53;;;2.03;;
56045;SDS011;41913;51.030;3.706;2024-01-16T02:04:52;4.28;;;1.45;;
56045;SDS011;41913;51.030;3.706;2024-01-16T02:07:18;1.67;;;1.58;;
56045;SDS011;41913;51.030;3.706;2024-01-16T02:09:44;4.65;;;1.45;;
56045;SDS011;41913;51.030;3.706;2024-01-16T02:12:10;2.85;;;1.63;;
56045;SDS011;41913;51.030;3.706;2024-01-16T02:14:36;4.82;;;1.65;;
56045;SDS011;41913;51.030;3.706;2024-01-16T02:17:02;1.35;;;1.25;;
56045;SDS011;41913;51.030;3.706;2024-01-16T02:19:28;2.13;;;1.73;;
56045;SDS011;41913;51.030;3.706;2024-01-16T02:21:54;2.90;;;1.85;;
56045;SDS011;41913;51.030;3.706;2024-01-16T02:24:29;1.88;;;1.58;;
56045;SDS011;41913;51.030;3.706;2024-01-16T02:26:55;1.50;;;1.42;;
56045;SDS011;41913;51.030;3.706;2024-01-16T02:29:21;2.40;;;1.80;;
56045;SDS011;41913;51.030;3.706;2024-01-16T02:31:47;1.85;;;1.58;;
56045;SDS011;41913;51.030;3.706;2024-01-16T02:34:12;2.75;;;1.77;;
56045;SDS011;41913;51.030;3.706;2024-01-16T02:36:38;3.38;;;2.10;;
56045;SDS011;41913;51.030;3.706;2024-01-16T02:39:04;2.55;;;1.83;;
56045;SDS011;41913;51.030;3.706;2024-01-16T02:41:31;1.83;;;1.48;;
56045;SDS011;41913;51.030;3.706;2024-01-16T02:43:57;1.75;;;1.30;;
56045;SDS011;41913;51.030;3.706;2024-01-16T02:46:23;2.28;;;1.40;;
56045;SDS011;41913;51.030;3.706;2024-01-16T02:48:49;2.20;;;2.00;;
56045;SDS011;41913;51.030;3.706;2024-01-16T02:51:15;2.08;;;1.65;;
56045;SDS011;41913;51.030;3.706;2024-01-16T02:53:41;1.90;;;1.80;;
56045;SDS011;41913;51.030;3.706;2024-01-16T02:56:07;1.90;;;1.50;;
56045;SDS011;41913;51.030;3.706;2024-01-16T02:58:33;2.60;;;1.80;;
56045;SDS011;41913;51.030;3.706;2024-01-16T03:00:59;3.72;;;1.50;;
56045;SDS011;41913;51.030;3.706;2024-01-16T03:03:26;1.63;;;1.52;;
56045;SDS011;41913;51.030;3.706;2024-01-16T03:05:51;1.83;;;1.73;;
56045;SDS011;41913;51.030;3.706;2024-01-16T03:08:17;1.92;;;1.65;;
56045;SDS011;41913;51.030;3.706;2024-01-16T03:10:43;1.65;;;1.55;;
56045;SDS011;41913;51.030;3.706;2024-01-16T03:13:10;1.42;;;1.33;;
56045;SDS011;41913;51.030;3.706;2024-01-16T03:15:35;1.45;;;1.33;;
56045;SDS011;41913;51.030;3.706;2024-01-16T03:18:01;2.97;;;1.60;;
56045;SDS011;41913;51.030;3.706;2024-01-16T03:20:27;2.45;;;1.65;;
56045;SDS011;41913;51.030;3.706;2024-01-16T03:22:53;3.65;;;2.00;;
56045;SDS011;41913;51.030;3.706;2024-01-16T03:25:19;2.30;;;1.50;;
56045;SDS011;41913;51.030;3.706;2024-01-16T03:27:46;2.45;;;1.73;;
56045;SDS011;41913;51.030;3.706;2024-01-16T03:30:12;1.88;;;1.77;;
56045;SDS011;41913;51.030;3.706;2024-01-16T03:32:38;3.28;;;1.70;;
56045;SDS011;41913;51.030;3.706;2024-01-16T03:35:05;3.95;;;1.52;;
56045;SDS011;41913;51.030;3.706;2024-01-16T03:37:31;2.35;;;2.10;;
56045;SDS011;41913;51.030;3.706;2024-01-16T03:39:57;1.92;;;1.45;;
56045;SDS011;41913;51.030;3.706;2024-01-16T03:42:23;1.63;;;1.52;;
56045;SDS011;41913;51.030;3.706;2024-01-16T03:44:49;2.30;;;2.00;;
56045;SDS011;41913;51.030;3.706;2024-01-16T03:47:16;1.40;;;1.30;;
56045;SDS011;41913;51.030;3.706;2024-01-16T03:49:41;2.10;;;1.77;;
56045;SDS011;41913;51.030;3.706;2024-01-16T03:52:07;1.30;;;1.23;;
56045;SDS011;41913;51.030;3.706;2024-01-16T03:54:33;2.35;;;2.13;;
56045;SDS011;41913;51.030;3.706;2024-01-16T03:57:00;2.00;;;1.58;;
56045;SDS011;41913;51.030;3.706;2024-01-16T03:59:26;2.20;;;1.58;;
56045;SDS011;41913;51.030;3.706;2024-01-16T04:01:52;2.25;;;1.83;;
56045;SDS011;41913;51.030;3.706;2024-01-16T04:04:17;1.95;;;1.67;;
56045;SDS011;41913;51.030;3.706;2024-01-16T04:06:43;2.15;;;1.70;;
56045;SDS011;41913;51.030;3.706;2024-01-16T04:09:10;3.05;;;2.65;;
56045;SDS011;41913;51.030;3.706;2024-01-16T04:11:36;2.78;;;1.73;;
56045;SDS011;41913;51.030;3.706;2024-01-16T04:14:01;1.75;;;1.65;;
56045;SDS011;41913;51.030;3.706;2024-01-16T04:16:28;2.13;;;1.52;;
56045;SDS011;41913;51.030;3.706;2024-01-16T04:18:54;2.00;;;1.38;;
56045;SDS011;41913;51.030;3.706;2024-01-16T04:21:20;2.92;;;1.38;;
56045;SDS011;41913;51.030;3.706;2024-01-16T04:23:45;2.53;;;1.70;;
56045;SDS011;41913;51.030;3.706;2024-01-16T04:26:11;1.85;;;1.30;;
56045;SDS011;41913;51.030;3.706;2024-01-16T04:28:37;2.15;;;1.55;;
56045;SDS011;41913;51.030;3.706;2024-01-16T04:31:03;1.73;;;1.63;;
56045;SDS011;41913;51.030;3.706;2024-01-16T04:33:29;1.50;;;1.40;;
56045;SDS011;41913;51.030;3.706;2024-01-16T04:35:57;3.28;;;1.83;;
56045;SDS011;41913;51.030;3.706;2024-01-16T04:38:24;3.30;;;1.70;;
56045;SDS011;41913;51.030;3.706;2024-01-16T04:40:50;2.83;;;1.70;;
56045;SDS011;41913;51.030;3.706;2024-01-16T04:43:15;2.08;;;1.67;;
56045;SDS011;41913;51.030;3.706;2024-01-16T04:45:43;1.33;;;1.13;;
56045;SDS011;41913;51.030;3.706;2024-01-16T04:48:09;2.88;;;2.00;;
56045;SDS011;41913;51.030;3.706;2024-01-16T04:50:35;2.08;;;1.73;;
56045;SDS011;41913;51.030;3.706;2024-01-16T04:53:01;1.45;;;1.35;;
56045;SDS011;41913;51.030;3.706;2024-01-16T04:55:29;2.40;;;1.52;;
56045;SDS011;41913;51.030;3.706;2024-01-16T04:57:55;1.80;;;1.70;;
56045;SDS011;41913;51.030;3.706;2024-01-16T05:00:22;2.42;;;1.65;;
56045;SDS011;41913;51.030;3.706;2024-01-16T05:02:49;2.85;;;2.28;;
56045;SDS011;41913;51.030;3.706;2024-01-16T05:05:16;1.33;;;1.23;;
56045;SDS011;41913;51.030;3.706;2024-01-16T05:07:42;1.60;;;1.50;;
56045;SDS011;41913;51.030;3.706;2024-01-16T05:10:11;2.50;;;1.85;;
56045;SDS011;41913;51.030;3.706;2024-01-16T05:12:40;1.85;;;1.80;;
56045;SDS011;41913;51.030;3.706;2024-01-16T05:15:06;1.58;;;1.35;;
56045;SDS011;41913;51.030;3.706;2024-01-16T05:17:33;2.65;;;1.60;;
56045;SDS011;41913;51.030;3.706;2024-01-16T05:20:00;3.25;;;1.73;;
56045;SDS011;41913;51.030;3.706;2024-01-16T05:22:29;2.13;;;1.77;;
56045;SDS011;41913;51.030;3.706;2024-01-16T05:25:00;1.65;;;1.55;;
56045;SDS011;41913;51.030;3.706;2024-01-16T05:27:28;2.65;;;1.48;;
56045;SDS011;41913;51.030;3.706;2024-01-16T05:29:54;2.08;;;1.77;;
56045;SDS011;41913;51.030;3.706;2024-01-16T05:32:20;1.67;;;1.58;;
56045;SDS011;41913;51.030;3.706;2024-01-16T05:34:46;1.67;;;1.58;;
56045;SDS011;41913;51.030;3.706;2024-01-16T05:37:12;1.35;;;1.35;;
56045;SDS011;41913;51.030;3.706;2024-01-16T05:39:41;1.45;;;1.35;;
56045;SDS011;41913;51.030;3.706;2024-01-16T05:42:08;2.15;;;2.00;;
56045;SDS011;41913;51.030;3.706;2024-01-16T05:44:34;6.18;;;1.55;;
56045;SDS011;41913;51.030;3.706;2024-01-16T05:47:01;2.17;;;2.00;;
56045;SDS011;41913;51.030;3.706;2024-01-16T05:49:27;1.52;;;1.42;;
56045;SDS011;41913;51.030;3.706;2024-01-16T05:51:54;2.58;;;1.48;;
56045;SDS011;41913;51.030;3.706;2024-01-16T05:56:48;1.75;;;1.65;;
56045;SDS011;41913;51.030;3.706;2024-01-16T05:59:16;2.40;;;1.75;;
56045;SDS011;41913;51.030;3.706;2024-01-16T06:01:41;2.53;;;1.80;;
56045;SDS011;41913;51.030;3.706;2024-01-16T06:04:07;3.67;;;1.75;;
56045;SDS011;41913;51.030;3.706;2024-01-16T06:06:33;2.33;;;1.85;;
56045;SDS011;41913;51.030;3.706;2024-01-16T06:09:02;2.35;;;1.30;;
56045;SDS011;41913;51.030;3.706;2024-01-16T06:11:31;3.10;;;1.90;;
56045;SDS011;41913;51.030;3.706;2024-01-16T06:13:57;1.60;;;1.50;;
56045;SDS011;41913;51.030;3.706;2024-01-16T06:16:23;1.88;;;1.40;;
56045;SDS011;41913;51.030;3.706;2024-01-16T06:18:52;1.27;;;1.27;;
56045;SDS011;41913;51.030;3.706;2024-01-16T06:21:28;2.30;;;1.70;;
56045;SDS011;41913;51.030;3.706;2024-01-16T06:26:22;4.25;;;1.85;;
56045;SDS011;41913;51.030;3.706;2024-01-16T06:28:48;1.83;;;1.73;;
56045;SDS011;41913;51.030;3.706;2024-01-16T06:31:14;29.52;;;2.83;;
56045;SDS011;41913;51.030;3.706;2024-01-16T06:36:31;18.17;;;3.10;;
56045;SDS011;41913;51.030;3.706;2024-01-16T06:41:25;44.03;;;5.78;;
56045;SDS011;41913;51.030;3.706;2024-01-16T06:43:51;23.95;;;2.72;;
56045;SDS011;41913;51.030;3.706;2024-01-16T06:46:19;12.95;;;2.60;;
56045;SDS011;41913;51.030;3.706;2024-01-16T06:48:52;53.00;;;6.32;;
56045;SDS011;41913;51.030;3.706;2024-01-16T06:51:18;44.80;;;6.57;;
56045;SDS011;41913;51.030;3.706;2024-01-16T06:53:44;72.18;;;8.90;;
56045;SDS011;41913;51.030;3.706;2024-01-16T06:56:11;63.95;;;8.25;;
56045;SDS011;41913;51.030;3.706;2024-01-16T06:58:37;23.83;;;4.70;;
56045;SDS011;41913;51.030;3.706;2024-01-16T07:01:03;28.42;;;3.00;;
56045;SDS011;41913;51.030;3.706;2024-01-16T07:03:29;17.70;;;2.90;;
56045;SDS011;41913;51.030;3.706;2024-01-16T07:05:56;12.77;;;3.72;;
56045;SDS011;41913;51.030;3.706;2024-01-16T07:08:22;8.88;;;2.80;;
56045;SDS011;41913;51.030;3.706;2024-01-16T07:10:48;11.48;;;3.15;;
56045;SDS011;41913;51.030;3.706;2024-01-16T07:13:13;11.25;;;2.88;;
56045;SDS011;41913;51.030;3.706;2024-01-16T07:15:39;8.23;;;2.38;;
56045;SDS011;41913;51.030;3.706;2024-01-16T07:18:05;5.93;;;2.47;;
56045;SDS011;41913;51.030;3.706;2024-01-16T07:20:31;8.95;;;2.40;;
56045;SDS011;41913;51.030;3.706;2024-01-16T07:22:57;5.35;;;2.25;;
56045;SDS011;41913;51.030;3.706;2024-01-16T07:25:22;7.30;;;2.17;;
56045;SDS011;41913;51.030;3.706;2024-01-16T07:27:48;6.40;;;2.15;;
56045;SDS011;41913;51.030;3.706;2024-01-16T07:30:15;17.10;;;2.75;;
56045;SDS011;41913;51.030;3.706;2024-01-16T07:32:41;7.13;;;2.63;;
56045;SDS011;41913;51.030;3.706;2024-01-16T07:35:06;3.95;;;1.92;;
56045;SDS011;41913;51.030;3.706;2024-01-16T07:37:32;5.00;;;2.60;;
56045;SDS011;41913;51.030;3.706;2024-01-16T07:39:58;3.42;;;2.20;;
56045;SDS011;41913;51.030;3.706;2024-01-16T07:42:24;3.22;;;2.28;;
56045;SDS011;41913;51.030;3.706;2024-01-16T07:44:50;8.32;;;2.30;;
56045;SDS011;41913;51.030;3.706;2024-01-16T07:47:16;8.20;;;2.53;;
56045;SDS011;41913;51.030;3.706;2024-01-16T07:49:42;3.33;;;2.03;;
56045;SDS011;41913;51.030;3.706;2024-01-16T07:52:08;3.08;;;2.13;;
56045;SDS011;41913;51.030;3.706;2024-01-16T07:54:34;3.15;;;1.90;;
56045;SDS011;41913;51.030;3.706;2024-01-16T07:57:00;2.65;;;1.92;;
56045;SDS011;41913;51.030;3.706;2024-01-16T07:59:26;3.13;;;2.83;;
56045;SDS011;41913;51.030;3.706;2024-01-16T08:01:52;4.03;;;1.67;;
56045;SDS011;41913;51.030;3.706;2024-01-16T08:04:18;2.60;;;1.92;;
56045;SDS011;41913;51.030;3.706;2024-01-16T08:06:44;2.53;;;1.73;;
56045;SDS011;41913;51.030;3.706;2024-01-16T08:09:11;3.50;;;1.92;;
56045;SDS011;41913;51.030;3.706;2024-01-16T08:11:37;2.83;;;2.00;;
56045;SDS011;41913;51.030;3.706;2024-01-16T08:14:04;3.28;;;1.85;;
56045;SDS011;41913;51.030;3.706;2024-01-16T08:16:30;3.70;;;2.25;;
56045;SDS011;41913;51.030;3.706;2024-01-16T08:18:56;3.10;;;2.00;;
56045;SDS011;41913;51.030;3.706;2024-01-16T08:21:22;5.88;;;2.25;;
56045;SDS011;41913;51.030;3.706;2024-01-16T08:23:48;5.25;;;2.53;;
56045;SDS011;41913;51.030;3.706;2024-01-16T08:26:14;5.45;;;2.30;;
56045;SDS011;41913;51.030;3.706;2024-01-16T08:28:40;3.35;;;1.65;;
56045;SDS011;41913;51.030;3.706;2024-01-16T08:31:06;3.63;;;2.33;;
56045;SDS011;41913;51.030;3.706;2024-01-16T08:33:32;3.30;;;2.00;;
56045;SDS011;41913;51.030;3.706;2024-01-16T08:35:57;2.38;;;1.80;;
56045;SDS011;41913;51.030;3.706;2024-01-16T08:38:24;2.95;;;2.53;;
56045;SDS011;41913;51.030;3.706;2024-01-16T08:40:49;6.60;;;2.35;;
56045;SDS011;41913;51.030;3.706;2024-01-16T08:43:15;3.58;;;2.13;;
56045;SDS011;41913;51.030;3.706;2024-01-16T08:45:41;4.20;;;1.80;;
56045;SDS011;41913;51.030;3.706;2024-01-16T08:48:06;5.30;;;1.90;;
56045;SDS011;41913;51.030;3.706;2024-01-16T08:50:32;4.30;;;2.88;;
56045;SDS011;41913;51.030;3.706;2024-01-16T08:52:58;6.55;;;2.70;;
56045;SDS011;41913;51.030;3.706;2024-01-16T08:55:24;5.32;;;2.40;;
56045;SDS011;41913;51.030;3.706;2024-01-16T08:57:50;7.80;;;2.13;;
56045;SDS011;41913;51.030;3.706;2024-01-16T09:00:15;8.43;;;2.50;;
56045;SDS011;41913;51.030;3.706;2024-01-16T09:02:41;3.20;;;2.67;;
56045;SDS011;41913;51.030;3.706;2024-01-16T09:05:07;5.80;;;3.15;;
56045;SDS011;41913;51.030;3.706;2024-01-16T09:07:33;8.88;;;3.42;;
56045;SDS011;41913;51.030;3.706;2024-01-16T09:09:59;5.22;;;3.00;;
56045;SDS011;41913;51.030;3.706;2024-01-16T09:12:25;4.85;;;2.22;;
56045;SDS011;41913;51.030;3.706;2024-01-16T09:14:51;7.65;;;2.45;;
56045;SDS011;41913;51.030;3.706;2024-01-16T09:17:17;5.63;;;2.95;;
56045;SDS011;41913;51.030;3.706;2024-01-16T09:19:43;4.28;;;2.00;;
56045;SDS011;41913;51.030;3.706;2024-01-16T09:22:08;4.68;;;2.70;;
56045;SDS011;41913;51.030;3.706;2024-01-16T09:24:34;3.55;;;2.25;;
56045;SDS011;41913;51.030;3.706;2024-01-16T09:27:00;3.28;;;1.85;;
56045;SDS011;41913;51.030;3.706;2024-01-16T09:29:26;6.80;;;2.42;;
56045;SDS011;41913;51.030;3.706;2024-01-16T09:31:52;5.60;;;2.30;;
56045;SDS011;41913;51.030;3.706;2024-01-16T09:34:18;4.85;;;2.13;;
56045;SDS011;41913;51.030;3.706;2024-01-16T09:36:44;4.10;;;2.80;;
56045;SDS011;41913;51.030;3.706;2024-01-16T09:39:09;7.85;;;2.47;;
56045;SDS011;41913;51.030;3.706;2024-01-16T09:41:39;3.88;;;2.60;;
56045;SDS011;41913;51.030;3.706;2024-01-16T09:44:04;2.20;;;1.98;;
56045;SDS011;41913;51.030;3.706;2024-01-16T09:46:32;3.78;;;2.50;;
56045;SDS011;41913;51.030;3.706;2024-01-16T09:49:02;3.22;;;2.33;;
56045;SDS011;41913;51.030;3.706;2024-01-16T09:51:28;8.00;;;2.80;;
56045;SDS011;41913;51.030;3.706;2024-01-16T09:53:54;5.07;;;2.50;;
56045;SDS011;41913;51.030;3.706;2024-01-16T09:56:23;4.63;;;1.90;;
56045;SDS011;41913;51.030;3.706;2024-01-16T09:58:54;3.45;;;2.28;;
56045;SDS011;41913;51.030;3.706;2024-01-16T10:01:23;3.40;;;2.05;;
56045;SDS011;41913;51.030;3.706;2024-01-16T10:03:51;4.80;;;2.42;;
56045;SDS011;41913;51.030;3.706;2024-01-16T10:06:19;5.25;;;2.63;;
56045;SDS011;41913;51.030;3.706;2024-01-16T10:08:45;4.88;;;2.85;;
56045;SDS011;41913;51.030;3.706;2024-01-16T10:11:11;6.72;;;2.58;;
56045;SDS011;41913;51.030;3.706;2024-01-16T10:13:37;6.03;;;3.03;;
56045;SDS011;41913;51.030;3.706;2024-01-16T10:16:03;2.15;;;2.05;;
56045;SDS011;41913;51.030;3.706;2024-01-16T10:18:30;6.40;;;2.92;;
56045;SDS011;41913;51.030;3.706;2024-01-16T10:20:57;2.85;;;2.50;;
56045;SDS011;41913;51.030;3.706;2024-01-16T10:23:26;3.30;;;2.10;;
56045;SDS011;41913;51.030;3.706;2024-01-16T10:28:33;4.95;;;2.47;;
56045;SDS011;41913;51.030;3.706;2024-01-16T10:31:10;1.77;;;1.65;;
56045;SDS011;41913;51.030;3.706;2024-01-16T10:33:37;3.35;;;2.30;;
56045;SDS011;41913;51.030;3.706;2024-01-16T10:36:14;5.18;;;1.98;;
56045;SDS011;41913;51.030;3.706;2024-01-16T10:38:46;7.03;;;2.17;;
56045;SDS011;41913;51.030;3.706;2024-01-16T10:41:13;2.22;;;2.00;;
56045;SDS011;41913;51.030;3.706;2024-01-16T10:43:40;2.53;;;1.85;;
56045;SDS011;41913;51.030;3.706;2024-01-16T10:46:07;2.17;;;1.83;;
56045;SDS011;41913;51.030;3.706;2024-01-16T10:48:35;5.05;;;2.00;;
56045;SDS011;41913;51.030;3.706;2024-01-16T10:51:03;2.67;;;1.85;;
56045;SDS011;41913;51.030;3.706;2024-01-16T10:53:36;4.15;;;2.28;;
56045;SDS011;41913;51.030;3.706;2024-01-16T10:56:06;2.70;;;2.10;;
56045;SDS011;41913;51.030;3.706;2024-01-16T10:58:36;2.70;;;2.00;;
56045;SDS011;41913;51.030;3.706;2024-01-16T11:01:05;3.35;;;1.65;;
56045;SDS011;41913;51.030;3.706;2024-01-16T11:03:43;2.70;;;1.52;;
56045;SDS011;41913;51.030;3.706;2024-01-16T11:06:18;11.65;;;1.90;;
56045;SDS011;41913;51.030;3.706;2024-01-16T11:08:47;1.52;;;1.40;;
56045;SDS011;41913;51.030;3.706;2024-01-16T11:11:15;1.92;;;1.83;;
56045;SDS011;41913;51.030;3.706;2024-01-16T11:13:41;4.60;;;1.70;;
56045;SDS011;41913;51.030;3.706;2024-01-16T11:16:11;1.92;;;1.67;;
56045;SDS011;41913;51.030;3.706;2024-01-16T11:18:37;3.67;;;1.88;;
56045;SDS011;41913;51.030;3.706;2024-01-16T11:21:05;4.40;;;1.63;;
56045;SDS011;41913;51.030;3.706;2024-01-16T11:23:36;4.90;;;2.23;;
56045;SDS011;41913;51.030;3.706;2024-01-16T11:28:51;2.38;;;1.92;;
56045;SDS011;41913;51.030;3.706;2024-01-16T11:31:34;2.50;;;1.92;;
56045;SDS011;41913;51.030;3.706;2024-01-16T11:34:01;2.63;;;1.90;;
56045;SDS011;41913;51.030;3.706;2024-01-16T11:39:19;1.85;;;1.75;;
56045;SDS011;41913;51.030;3.706;2024-01-16T11:41:49;3.35;;;1.77;;
56045;SDS011;41913;51.030;3.706;2024-01-16T11:47:17;2.95;;;1.88;;
56045;SDS011;41913;51.030;3.706;2024-01-16T11:49:47;1.48;;;1.40;;
56045;SDS011;41913;51.030;3.706;2024-01-16T11:52:14;3.53;;;2.13;;
56045;SDS011;41913;51.030;3.706;2024-01-16T11:54:41;1.65;;;1.55;;
56045;SDS011;41913;51.030;3.706;2024-01-16T11:57:22;1.90;;;1.65;;
56045;SDS011;41913;51.030;3.706;2024-01-16T12:00:05;1.58;;;1.30;;
56045;SDS011;41913;51.030;3.706;2024-01-16T12:02:56;7.35;;;1.58;;
56045;SDS011;41913;51.030;3.706;2024-01-16T12:05:22;3.03;;;1.45;;
56045;SDS011;41913;51.030;3.706;2024-01-16T12:07:48;2.08;;;1.67;;
56045;SDS011;41913;51.030;3.706;2024-01-16T12:10:18;3.47;;;1.42;;
56045;SDS011;41913;51.030;3.706;2024-01-16T12:12:46;1.55;;;1.42;;
56045;SDS011;41913;51.030;3.706;2024-01-16T12:15:13;1.60;;;1.50;;
56045;SDS011;41913;51.030;3.706;2024-01-16T12:18:02;3.00;;;1.58;;
56045;SDS011;41913;51.030;3.706;2024-01-16T12:20:30;2.53;;;1.42;;
56045;SDS011;41913;51.030;3.706;2024-01-16T12:22:59;1.55;;;1.42;;
56045;SDS011;41913;51.030;3.706;2024-01-16T12:25:35;1.83;;;1.73;;
56045;SDS011;41913;51.030;3.706;2024-01-16T12:28:05;1.33;;;1.15;;
56045;SDS011;41913;51.030;3.706;2024-01-16T12:30:36;1.63;;;1.52;;
56045;SDS011;41913;51.030;3.706;2024-01-16T12:33:05;1.70;;;1.50;;
56045;SDS011;41913;51.030;3.706;2024-01-16T12:35:33;1.60;;;1.50;;
56045;SDS011;41913;51.030;3.706;2024-01-16T12:38:09;5.43;;;1.80;;
56045;SDS011;41913;51.030;3.706;2024-01-16T12:40:36;1.98;;;1.60;;
56045;SDS011;41913;51.030;3.706;2024-01-16T12:43:06;2.05;;;1.30;;
56045;SDS011;41913;51.030;3.706;2024-01-16T12:45:34;1.75;;;1.60;;
56045;SDS011;41913;51.030;3.706;2024-01-16T12:48:01;1.52;;;1.40;;
56045;SDS011;41913;51.030;3.706;2024-01-16T12:50:28;1.20;;;1.20;;
56045;SDS011;41913;51.030;3.706;2024-01-16T12:53:05;2.25;;;1.58;;
56045;SDS011;41913;51.030;3.706;2024-01-16T12:55:36;2.17;;;1.55;;
56045;SDS011;41913;51.030;3.706;2024-01-16T12:58:18;1.60;;;1.40;;
56045;SDS011;41913;51.030;3.706;2024-01-16T13:00:47;3.83;;;1.70;;
56045;SDS011;41913;51.030;3.706;2024-01-16T13:05:42;2.50;;;1.35;;
56045;SDS011;41913;51.030;3.706;2024-01-16T13:08:08;1.88;;;1.70;;
56045;SDS011;41913;51.030;3.706;2024-01-16T13:10:34;2.65;;;1.75;;
56045;SDS011;41913;51.030;3.706;2024-01-16T13:13:16;2.25;;;1.80;;
56045;SDS011;41913;51.030;3.706;2024-01-16T13:15:43;1.73;;;1.60;;
56045;SDS011;41913;51.030;3.706;2024-01-16T13:21:02;2.10;;;1.48;;
56045;SDS011;41913;51.030;3.706;2024-01-16T13:23:29;1.88;;;1.25;;
56045;SDS011;41913;51.030;3.706;2024-01-16T13:25:56;2.70;;;1.50;;
56045;SDS011;41913;51.030;3.706;2024-01-16T13:28:25;2.35;;;1.15;;
56045;SDS011;41913;51.030;3.706;2024-01-16T13:30:50;1.33;;;1.23;;
56045;SDS011;41913;51.030;3.706;2024-01-16T13:33:17;2.20;;;1.65;;
56045;SDS011;41913;51.030;3.706;2024-01-16T13:35:44;2.45;;;1.20;;
56045;SDS011;41913;51.030;3.706;2024-01-16T13:38:15;1.52;;;1.38;;
56045;SDS011;41913;51.030;3.706;2024-01-16T13:40:41;1.98;;;1.55;;
56045;SDS011;41913;51.030;3.706;2024-01-16T13:43:07;2.35;;;1.35;;
56045;SDS011;41913;51.030;3.706;2024-01-16T13:45:33;1.50;;;1.27;;
56045;SDS011;41913;51.030;3.706;2024-01-16T13:48:00;3.20;;;1.23;;
56045;SDS011;41913;51.030;3.706;2024-01-16T13:50:28;1.40;;;1.25;;
56045;SDS011;41913;51.030;3.706;2024-01-16T13:52:55;2.15;;;1.88;;
56045;SDS011;41913;51.030;3.706;2024-01-16T13:55:21;1.98;;;1.77;;
56045;SDS011;41913;51.030;3.706;2024-01-16T13:57:47;1.42;;;1.27;;
56045;SDS011;41913;51.030;3.706;2024-01-16T14:00:13;3.72;;;1.17;;
56045;SDS011;41913;51.030;3.706;2024-01-16T14:02:43;1.67;;;1.00;;
56045;SDS011;41913;51.030;3.706;2024-01-16T14:07:40;1.33;;;1.30;;
56045;SDS011;41913;51.030;3.706;2024-01-16T14:10:10;3.60;;;1.20;;
56045;SDS011;41913;51.030;3.706;2024-01-16T14:12:37;3.65;;;1.38;;
56045;SDS011;41913;51.030;3.706;2024-01-16T14:15:03;2.50;;;1.38;;
56045;SDS011;41913;51.030;3.706;2024-01-16T14:17:34;2.10;;;1.25;;
56045;SDS011;41913;51.030;3.706;2024-01-16T14:20:00;2.83;;;1.20;;
56045;SDS011;41913;51.030;3.706;2024-01-16T14:22:27;1.55;;;1.00;;
56045;SDS011;41913;51.030;3.706;2024-01-16T14:24:53;4.35;;;1.25;;
56045;SDS011;41913;51.030;3.706;2024-01-16T14:27:20;1.25;;;1.05;;
56045;SDS011;41913;51.030;3.706;2024-01-16T14:29:45;1.48;;;1.10;;
56045;SDS011;41913;51.030;3.706;2024-01-16T14:32:11;1.05;;;0.98;;
56045;SDS011;41913;51.030;3.706;2024-01-16T14:34:37;2.83;;;1.45;;
56045;SDS011;41913;51.030;3.706;2024-01-16T14:37:03;1.30;;;1.20;;
56045;SDS011;41913;51.030;3.706;2024-01-16T14:39:28;1.90;;;1.20;;
56045;SDS011;41913;51.030;3.706;2024-01-16T14:41:56;1.63;;;1.08;;
56045;SDS011;41913;51.030;3.706;2024-01-16T14:44:25;1.05;;;0.90;;
56045;SDS011;41913;51.030;3.706;2024-01-16T14:46:51;2.22;;;1.25;;
56045;SDS011;41913;51.030;3.706;2024-01-16T14:49:20;1.02;;;1.02;;
56045;SDS011;41913;51.030;3.706;2024-01-16T14:51:48;2.67;;;1.35;;
56045;SDS011;41913;51.030;3.706;2024-01-16T14:54:15;3.72;;;1.02;;
56045;SDS011;41913;51.030;3.706;2024-01-16T14:56:41;1.08;;;1.08;;
56045;SDS011;41913;51.030;3.706;2024-01-16T14:59:07;1.42;;;0.88;;
56045;SDS011;41913;51.030;3.706;2024-01-16T15:01:34;1.40;;;1.30;;
56045;SDS011;41913;51.030;3.706;2024-01-16T15:04:00;1.75;;;0.95;;
56045;SDS011;41913;51.030;3.706;2024-01-16T15:06:26;2.72;;;1.35;;
56045;SDS011;41913;51.030;3.706;2024-01-16T15:08:52;1.65;;;1.30;;
56045;SDS011;41913;51.030;3.706;2024-01-16T15:11:18;1.00;;;1.00;;
56045;SDS011;41913;51.030;3.706;2024-01-16T15:13:44;1.45;;;1.35;;
56045;SDS011;41913;51.030;3.706;2024-01-16T15:16:11;3.55;;;1.35;;